Time;durP1;ratioP1;P1;durP2;ratioP2;P2;SDS_P1;SDS_P2;PMS_P1;PMS_P2;Temp;Humidity;BMP_temperature;BMP_pressure;BME280_temperature;BME280_humidity;BME280_pressure;Samples;Min_cycle;Max_cycle;Signal;HPM_P1;HPM_P2
2021/09/25 00:02:16;;;;;;;5.67;2.97;;;16.60;99.90;;;;;;5042406;28;20801;-54
2021/09/25 00:04:42;;;;;;;7.53;3.10;;;16.60;99.90;;;;;;5046559;28;20203;-54
2021/09/25 00:07:10;;;;;;;4.13;3.00;;;16.60;99.90;;;;;;5042624;28;20668;-55
2021/09/25 00:09:40;;;;;;;6.53;3.47;;;16.60;99.90;;;;;;5046084;28;20726;-53
2021/09/25 00:12:10;;;;;;;7.97;3.93;;;16.60;99.90;;;;;;5027629;28;20219;-49
2021/09/25 00:14:37;;;;;;;6.10;3.37;;;16.50;99.90;;;;;;5038221;28;20199;-53
2021/09/25 00:17:05;;;;;;;4.27;3.40;;;16.50;99.90;;;;;;5044203;28;20548;-53
2021/09/25 00:19:32;;;;;;;3.43;3.13;;;16.50;99.90;;;;;;5047105;28;20821;-56
2021/09/25 00:21:59;;;;;;;6.27;3.27;;;16.50;99.90;;;;;;5047828;28;20192;-52
2021/09/25 00:24:26;;;;;;;6.60;3.83;;;16.50;99.90;;;;;;5045916;28;20191;-56
2021/09/25 00:26:53;;;;;;;6.07;3.00;;;16.50;99.90;;;;;;5034085;28;20210;-56
2021/09/25 00:29:19;;;;;;;6.97;3.40;;;16.50;99.90;;;;;;5044293;28;20473;-55
2021/09/25 00:31:46;;;;;;;6.13;3.07;;;16.50;99.90;;;;;;5041101;28;20211;-54
2021/09/25 00:34:14;;;;;;;5.53;3.80;;;16.50;99.90;;;;;;5043984;28;20939;-58
2021/09/25 00:36:41;;;;;;;8.57;3.60;;;16.50;99.90;;;;;;5047670;28;20212;-50
2021/09/25 00:39:08;;;;;;;6.10;3.27;;;16.50;99.90;;;;;;5042869;28;20310;-54
2021/09/25 00:41:34;;;;;;;10.77;3.70;;;16.50;99.90;;;;;;5046503;28;20203;-55
2021/09/25 00:44:01;;;;;;;5.67;3.37;;;16.50;99.90;;;;;;5033143;28;20586;-52
2021/09/25 00:46:28;;;;;;;8.77;3.90;;;16.50;99.90;;;;;;5038022;28;20569;-54
2021/09/25 00:48:55;;;;;;;6.30;4.20;;;16.50;99.90;;;;;;5047790;28;20241;-55
2021/09/25 00:51:23;;;;;;;7.00;4.63;;;16.50;99.90;;;;;;5045098;28;20215;-56
2021/09/25 00:53:49;;;;;;;5.87;3.13;;;16.50;99.90;;;;;;5047954;28;20207;-54
2021/09/25 00:56:17;;;;;;;6.67;3.53;;;16.50;99.90;;;;;;5043966;28;20192;-49
2021/09/25 00:58:44;;;;;;;7.13;3.90;;;16.50;99.90;;;;;;5022073;28;20227;-53
2021/09/25 01:01:11;;;;;;;6.70;3.50;;;16.50;99.90;;;;;;5042699;28;20194;-50
2021/09/25 01:03:38;;;;;;;7.20;3.70;;;16.50;99.90;;;;;;5036418;28;20211;-53
2021/09/25 01:06:05;;;;;;;5.87;4.47;;;16.50;99.90;;;;;;5042380;28;20226;-51
2021/09/25 01:08:32;;;;;;;9.37;4.90;;;16.50;99.90;;;;;;5044721;28;20242;-50
2021/09/25 01:10:59;;;;;;;5.93;3.80;;;16.50;99.90;;;;;;5040268;28;20223;-53
2021/09/25 01:13:26;;;;;;;8.70;4.23;;;16.50;99.90;;;;;;5029194;28;20207;-49
2021/09/25 01:15:53;;;;;;;8.43;4.70;;;16.50;99.90;;;;;;5042230;28;20675;-53
2021/09/25 01:18:20;;;;;;;7.07;3.77;;;16.50;99.90;;;;;;5038784;28;20236;-56
2021/09/25 01:20:47;;;;;;;8.70;4.40;;;16.50;99.90;;;;;;5044665;28;20218;-52
2021/09/25 01:23:15;;;;;;;6.60;4.30;;;16.40;99.90;;;;;;5038705;28;20192;-57
2021/09/25 01:25:41;;;;;;;8.87;4.60;;;16.40;99.90;;;;;;5041640;28;20210;-53
2021/09/25 01:28:08;;;;;;;7.13;4.53;;;16.40;99.90;;;;;;5044372;28;20226;-52
2021/09/25 01:30:35;;;;;;;5.60;3.93;;;16.40;99.90;;;;;;5027771;28;20660;-54
2021/09/25 01:33:02;;;;;;;6.73;4.40;;;16.40;99.90;;;;;;5035911;28;20206;-55
2021/09/25 01:35:29;;;;;;;6.43;4.47;;;16.30;99.90;;;;;;5042798;28;20282;-55
2021/09/25 01:37:56;;;;;;;6.20;4.33;;;16.30;99.90;;;;;;5041752;28;20861;-50
2021/09/25 01:40:24;;;;;;;6.43;4.83;;;16.30;99.90;;;;;;5044734;28;20710;-53
2021/09/25 01:42:51;;;;;;;6.00;5.30;;;16.40;99.90;;;;;;5040777;28;20187;-51
2021/09/25 01:45:18;;;;;;;6.30;5.00;;;16.30;99.90;;;;;;5030052;28;20592;-52
2021/09/25 01:47:44;;;;;;;9.57;4.50;;;16.30;99.90;;;;;;5039501;28;20219;-54
2021/09/25 01:50:13;;;;;;;6.97;4.90;;;16.30;99.90;;;;;;5036759;28;20215;-52
2021/09/25 01:52:41;;;;;;;9.80;5.07;;;16.30;99.90;;;;;;5040021;28;20219;-55
2021/09/25 01:55:09;;;;;;;6.83;5.03;;;16.20;99.90;;;;;;5044135;28;20660;-54
2021/09/25 01:57:37;;;;;;;9.40;6.23;;;16.20;99.90;;;;;;5041404;28;20572;-54
2021/09/25 02:00:06;;;;;;;8.43;5.17;;;16.20;99.90;;;;;;5031000;28;20217;-51
2021/09/25 02:02:32;;;;;;;7.27;5.07;;;16.20;99.90;;;;;;5042149;28;20227;-54
2021/09/25 02:04:59;;;;;;;10.63;5.83;;;16.20;99.90;;;;;;5033229;28;20212;-52
2021/09/25 02:07:26;;;;;;;12.00;5.70;;;16.10;99.90;;;;;;5043219;28;20712;-51
2021/09/25 02:09:52;;;;;;;10.10;5.70;;;16.10;99.90;;;;;;5040509;28;20195;-50
2021/09/25 02:12:19;;;;;;;9.70;5.53;;;16.10;99.90;;;;;;5043888;28;20226;-50
2021/09/25 02:14:47;;;;;;;11.93;6.00;;;16.10;99.90;;;;;;5025242;28;20241;-54
2021/09/25 02:17:14;;;;;;;9.67;5.97;;;16.10;99.90;;;;;;5043659;28;20847;-53
2021/09/25 02:19:41;;;;;;;11.30;6.43;;;16.10;99.90;;;;;;5034188;28;20218;-55
2021/09/25 02:22:08;;;;;;;7.63;5.83;;;16.10;99.90;;;;;;5042484;28;20199;-55
2021/09/25 02:24:35;;;;;;;10.43;5.53;;;16.10;99.90;;;;;;5041108;28;20211;-50
2021/09/25 02:27:02;;;;;;;7.30;5.60;;;16.10;99.90;;;;;;5041862;28;20202;-53
2021/09/25 02:29:28;;;;;;;10.03;6.43;;;16.00;99.90;;;;;;5036212;28;20214;-51
2021/09/25 02:31:56;;;;;;;13.43;7.17;;;16.10;99.90;;;;;;5017124;28;20222;-52
2021/09/25 02:34:23;;;;;;;9.20;6.37;;;16.00;99.90;;;;;;5039808;28;20214;-52
2021/09/25 02:36:50;;;;;;;9.77;6.27;;;16.00;99.90;;;;;;5031002;28;20203;-52
2021/09/25 02:39:16;;;;;;;10.67;7.00;;;16.00;99.90;;;;;;5043443;28;20598;-52
2021/09/25 02:41:43;;;;;;;11.57;6.87;;;16.00;99.90;;;;;;5039294;28;20199;-51
2021/09/25 02:44:10;;;;;;;14.23;8.10;;;16.00;99.90;;;;;;5042897;28;20203;-54
2021/09/25 02:46:36;;;;;;;14.13;7.77;;;16.00;99.90;;;;;;5024827;28;20237;-51
2021/09/25 02:49:04;;;;;;;12.73;7.63;;;16.00;99.90;;;;;;5041996;28;20230;-49
2021/09/25 02:51:31;;;;;;;11.60;7.67;;;16.00;99.90;;;;;;5034278;28;20212;-56
2021/09/25 02:53:57;;;;;;;13.20;7.97;;;16.00;99.90;;;;;;5040473;28;20192;-52
2021/09/25 02:56:24;;;;;;;10.20;7.67;;;16.00;99.90;;;;;;5042987;28;20203;-55
2021/09/25 02:58:51;;;;;;;9.63;7.83;;;16.00;99.90;;;;;;5039359;28;20207;-55
2021/09/25 03:01:17;;;;;;;13.90;8.53;;;16.00;99.90;;;;;;5043347;28;20206;-52
2021/09/25 03:03:44;;;;;;;15.83;9.53;;;16.00;99.90;;;;;;5019772;28;20203;-55
2021/09/25 03:06:12;;;;;;;17.50;8.90;;;15.90;99.90;;;;;;5043198;28;20199;-53
2021/09/25 03:08:39;;;;;;;11.67;8.10;;;15.90;99.90;;;;;;5032309;28;20719;-53
2021/09/25 03:11:05;;;;;;;12.67;8.07;;;15.90;99.90;;;;;;5042591;28;20203;-53
2021/09/25 03:13:32;;;;;;;14.10;9.40;;;15.90;99.90;;;;;;5041536;28;20567;-52
2021/09/25 03:16:00;;;;;;;17.70;10.00;;;15.90;99.90;;;;;;5042981;28;20191;-56
2021/09/25 03:18:27;;;;;;;12.73;9.07;;;15.90;99.90;;;;;;5027965;28;20730;-53
2021/09/25 03:20:53;;;;;;;13.23;9.93;;;15.90;99.90;;;;;;5040862;28;20195;-49
2021/09/25 03:23:21;;;;;;;19.53;9.67;;;15.90;99.90;;;;;;5036967;28;20203;-50
2021/09/25 03:25:48;;;;;;;15.63;10.00;;;15.90;99.90;;;;;;5042611;28;20203;-52
2021/09/25 03:28:14;;;;;;;14.33;10.07;;;15.90;99.90;;;;;;5046709;28;20229;-48
2021/09/25 03:30:41;;;;;;;14.37;10.33;;;15.90;99.90;;;;;;5043735;28;20652;-58
2021/09/25 03:33:08;;;;;;;14.30;10.20;;;15.90;99.90;;;;;;5029053;28;20220;-49
2021/09/25 03:35:34;;;;;;;17.30;10.20;;;15.90;99.90;;;;;;5043444;28;20240;-52
2021/09/25 03:38:01;;;;;;;14.60;9.63;;;15.90;99.90;;;;;;5047167;28;20226;-55
2021/09/25 03:40:30;;;;;;;13.83;9.87;;;15.90;99.90;;;;;;5040091;28;20215;-54
2021/09/25 03:42:56;;;;;;;13.77;10.57;;;15.80;99.90;;;;;;5046723;28;20198;-57
2021/09/25 03:45:23;;;;;;;15.80;10.37;;;15.80;99.90;;;;;;5048917;28;20206;-57
2021/09/25 03:47:54;;;;;;;15.87;10.97;;;15.90;99.90;;;;;;5030620;28;20215;-56
2021/09/25 03:50:21;;;;;;;20.23;10.37;;;15.90;99.90;;;;;;5049294;28;20656;-56
2021/09/25 03:52:48;;;;;;;16.03;10.17;;;15.80;99.90;;;;;;5043921;28;20215;-53
2021/09/25 03:55:14;;;;;;;17.23;10.90;;;15.90;99.90;;;;;;5039120;28;20203;-52
2021/09/25 03:57:42;;;;;;;15.67;11.40;;;15.90;99.90;;;;;;5042445;28;20238;-53
2021/09/25 04:00:10;;;;;;;14.73;11.23;;;15.90;99.90;;;;;;5046607;28;20214;-54
2021/09/25 04:02:37;;;;;;;15.67;10.47;;;15.90;99.90;;;;;;5035574;28;20226;-52
2021/09/25 04:05:04;;;;;;;13.37;11.13;;;15.90;99.90;;;;;;5031823;28;20272;-49
2021/09/25 04:07:31;;;;;;;15.17;11.33;;;15.90;99.90;;;;;;5037289;28;20223;-53
2021/09/25 04:09:57;;;;;;;16.53;11.53;;;15.90;99.90;;;;;;5046052;28;20210;-49
2021/09/25 04:12:24;;;;;;;19.70;11.27;;;15.90;99.90;;;;;;5028481;28;20216;-55
2021/09/25 04:14:52;;;;;;;16.27;11.23;;;15.90;99.90;;;;;;5044978;28;20203;-50
2021/09/25 04:17:19;;;;;;;14.70;11.23;;;15.90;99.90;;;;;;5045563;28;20199;-50
2021/09/25 04:19:45;;;;;;;18.10;11.23;;;15.90;99.90;;;;;;5029953;28;20215;-55
2021/09/25 04:22:12;;;;;;;14.87;11.50;;;15.90;99.90;;;;;;5042314;28;20200;-55
2021/09/25 04:24:38;;;;;;;16.67;11.30;;;15.90;99.90;;;;;;5044762;28;20938;-57
2021/09/25 04:27:05;;;;;;;15.50;12.20;;;15.90;99.90;;;;;;5035847;28;20200;-57
2021/09/25 04:29:32;;;;;;;12.30;11.00;;;15.90;99.90;;;;;;5043138;28;20207;-56
2021/09/25 04:32:00;;;;;;;17.17;11.47;;;15.90;99.90;;;;;;5048703;28;20572;-58
2021/09/25 04:34:26;;;;;;;14.50;11.47;;;15.90;99.90;;;;;;5032908;28;20214;-50
2021/09/25 04:36:53;;;;;;;11.90;10.53;;;15.90;99.90;;;;;;5039589;28;20203;-52
2021/09/25 04:39:19;;;;;;;13.80;11.63;;;16.00;99.90;;;;;;5038311;28;20227;-55
2021/09/25 04:41:46;;;;;;;13.63;11.43;;;16.00;99.90;;;;;;5035115;28;20208;-54
2021/09/25 04:44:16;;;;;;;15.10;12.10;;;16.00;99.90;;;;;;5045123;28;20231;-54
2021/09/25 04:46:43;;;;;;;16.30;12.27;;;16.00;99.90;;;;;;5034771;28;20199;-52
2021/09/25 04:49:11;;;;;;;17.00;12.40;;;16.00;99.90;;;;;;5044872;28;20226;-48
2021/09/25 04:51:38;;;;;;;14.67;12.00;;;16.00;99.90;;;;;;5026949;28;20200;-52
2021/09/25 04:54:05;;;;;;;15.53;12.63;;;16.00;99.90;;;;;;5039441;28;20695;-53
2021/09/25 04:56:32;;;;;;;14.50;12.87;;;16.00;99.90;;;;;;5041133;28;20207;-50
2021/09/25 04:58:59;;;;;;;17.63;13.30;;;16.00;99.90;;;;;;5036599;28;20250;-52
2021/09/25 05:01:25;;;;;;;16.90;12.67;;;16.00;99.90;;;;;;5042342;28;20222;-56
2021/09/25 05:03:52;;;;;;;22.70;13.53;;;16.00;99.90;;;;;;5041340;28;20199;-52
2021/09/25 05:06:20;;;;;;;19.73;14.20;;;16.00;99.90;;;;;;5033720;28;20580;-58
2021/09/25 05:08:46;;;;;;;19.27;13.93;;;16.00;99.90;;;;;;5028177;28;20223;-52
2021/09/25 05:11:13;;;;;;;21.00;15.30;;;16.00;99.90;;;;;;5044259;28;20211;-56
2021/09/25 05:13:40;;;;;;;21.87;13.90;;;16.10;99.90;;;;;;5033592;28;20234;-47
2021/09/25 05:16:06;;;;;;;19.03;13.90;;;16.00;99.90;;;;;;5040737;28;20549;-50
2021/09/25 05:18:33;;;;;;;22.13;15.67;;;16.10;99.90;;;;;;5038132;28;20220;-56
2021/09/25 05:20:59;;;;;;;20.60;14.93;;;16.00;99.90;;;;;;5047177;28;20657;-53
2021/09/25 05:23:27;;;;;;;19.10;15.33;;;16.10;99.90;;;;;;5024262;28;20210;-52
2021/09/25 05:25:54;;;;;;;22.60;16.27;;;16.10;99.90;;;;;;5033938;28;20233;-54
2021/09/25 05:28:20;;;;;;;22.80;15.80;;;16.10;99.90;;;;;;5042875;28;20691;-49
2021/09/25 05:30:47;;;;;;;24.77;15.77;;;16.10;99.90;;;;;;5035648;28;20213;-52
2021/09/25 05:33:14;;;;;;;21.30;14.60;;;16.10;99.90;;;;;;5039876;28;20230;-48
2021/09/25 05:35:40;;;;;;;24.27;15.77;;;16.10;99.90;;;;;;5041476;28;20203;-57
2021/09/25 05:38:07;;;;;;;25.53;17.27;;;16.10;99.90;;;;;;5030131;28;20960;-56
2021/09/25 05:40:35;;;;;;;24.03;15.90;;;16.10;99.90;;;;;;5032344;28;20191;-54
2021/09/25 05:43:01;;;;;;;27.93;16.80;;;16.10;99.90;;;;;;5045489;28;20214;-56
2021/09/25 05:45:28;;;;;;;27.03;17.43;;;16.10;99.90;;;;;;5024688;28;20206;-52
2021/09/25 05:47:55;;;;;;;29.20;17.27;;;16.20;99.90;;;;;;5037071;28;20248;-53
2021/09/25 05:50:21;;;;;;;25.63;18.00;;;16.20;99.90;;;;;;5035810;28;20203;-55
2021/09/25 05:52:48;;;;;;;23.47;17.10;;;16.20;99.90;;;;;;5026034;28;21092;-55
2021/09/25 05:55:15;;;;;;;26.87;18.63;;;16.20;99.90;;;;;;5040040;28;20211;-52
2021/09/25 05:57:44;;;;;;;32.23;19.17;;;16.20;99.90;;;;;;5035013;28;21101;-55
2021/09/25 06:00:11;;;;;;;28.50;18.80;;;16.20;99.90;;;;;;5042949;28;20203;-52
2021/09/25 06:02:42;;;;;;;28.03;17.53;;;16.20;99.90;;;;;;5032689;28;20203;-52
2021/09/25 06:05:10;;;;;;;30.87;18.87;;;16.20;99.90;;;;;;5033833;28;20285;-53
2021/09/25 06:07:37;;;;;;;28.20;18.50;;;16.30;99.90;;;;;;5037184;28;20922;-56
2021/09/25 06:10:05;;;;;;;30.47;19.50;;;16.30;99.90;;;;;;5028215;28;20217;-52
2021/09/25 06:12:31;;;;;;;31.33;18.80;;;16.20;99.90;;;;;;5033100;28;20223;-55
2021/09/25 06:15:00;;;;;;;34.00;19.40;;;16.20;99.90;;;;;;5029883;28;20210;-50
2021/09/25 06:17:26;;;;;;;33.83;19.90;;;16.30;99.90;;;;;;5032818;28;20245;-49
2021/09/25 06:19:53;;;;;;;32.27;19.07;;;16.30;99.90;;;;;;5027714;28;20223;-53
2021/09/25 06:22:19;;;;;;;30.97;19.67;;;16.30;99.90;;;;;;5037432;28;20200;-49
2021/09/25 06:24:46;;;;;;;30.57;19.10;;;16.30;99.90;;;;;;5023567;28;20242;-52
2021/09/25 06:27:12;;;;;;;30.80;18.03;;;16.30;99.90;;;;;;5031892;28;20203;-50
2021/09/25 06:29:39;;;;;;;30.67;19.20;;;16.30;99.90;;;;;;5037759;28;20215;-52
2021/09/25 06:32:08;;;;;;;25.10;18.90;;;16.30;99.90;;;;;;5030489;28;20361;-48
2021/09/25 06:34:35;;;;;;;34.03;18.33;;;16.30;99.90;;;;;;5031817;28;20207;-50
2021/09/25 06:37:01;;;;;;;30.03;18.07;;;16.30;99.90;;;;;;5032272;28;21154;-47
2021/09/25 06:39:28;;;;;;;37.40;19.27;;;16.40;99.90;;;;;;5032508;28;20206;-53
2021/09/25 06:41:55;;;;;;;33.93;20.03;;;16.40;99.90;;;;;;5035982;28;20685;-52
2021/09/25 06:44:21;;;;;;;27.77;17.40;;;16.40;99.90;;;;;;5038274;28;20202;-49
2021/09/25 06:46:48;;;;;;;31.30;17.83;;;16.40;99.90;;;;;;5039686;28;20270;-51
2021/09/25 06:49:16;;;;;;;37.70;18.90;;;16.40;99.90;;;;;;5030000;28;20246;-56
2021/09/25 06:51:42;;;;;;;26.13;17.33;;;16.50;99.90;;;;;;5039587;28;20195;-48
2021/09/25 06:54:09;;;;;;;30.80;18.37;;;16.50;99.90;;;;;;5034830;28;20238;-48
2021/09/25 06:56:36;;;;;;;35.90;17.03;;;16.50;99.90;;;;;;5034135;28;20207;-47
2021/09/25 06:59:02;;;;;;;28.43;17.93;;;16.50;99.90;;;;;;5041027;28;20242;-52
2021/09/25 07:01:29;;;;;;;28.03;16.30;;;16.50;99.90;;;;;;5040136;28;20210;-49
2021/09/25 07:03:56;;;;;;;24.37;16.80;;;16.50;99.90;;;;;;5033661;28;20203;-49
2021/09/25 07:06:24;;;;;;;30.80;16.97;;;16.60;99.90;;;;;;5031677;28;20207;-50
2021/09/25 07:08:50;;;;;;;30.37;17.13;;;16.60;99.90;;;;;;5032167;28;20238;-49
2021/09/25 07:11:17;;;;;;;33.23;18.20;;;16.60;99.90;;;;;;5013877;28;20215;-50
2021/09/25 07:13:44;;;;;;;29.10;18.67;;;16.60;99.90;;;;;;5029969;28;20303;-52
2021/09/25 07:16:11;;;;;;;28.70;14.73;;;16.60;99.90;;;;;;5038541;28;20207;-49
2021/09/25 07:18:38;;;;;;;30.33;16.60;;;16.60;99.90;;;;;;5031813;28;20227;-52
2021/09/25 07:21:06;;;;;;;29.43;15.63;;;16.60;99.90;;;;;;5033107;28;20207;-49
2021/09/25 07:23:36;;;;;;;27.80;16.97;;;16.70;99.90;;;;;;5036672;28;20199;-52
2021/09/25 07:26:03;;;;;;;25.93;15.57;;;16.70;99.90;;;;;;5028266;28;20288;-49
2021/09/25 07:28:30;;;;;;;24.30;15.93;;;16.70;99.90;;;;;;5036511;28;20219;-49
2021/09/25 07:30:56;;;;;;;25.37;15.17;;;16.70;99.90;;;;;;5034685;28;20203;-48
2021/09/25 07:33:23;;;;;;;31.60;15.57;;;16.70;99.90;;;;;;5042380;28;20215;-49
2021/09/25 07:35:50;;;;;;;25.13;15.27;;;16.80;99.90;;;;;;5024057;28;20222;-50
2021/09/25 07:38:16;;;;;;;24.50;14.33;;;16.80;99.90;;;;;;5033595;28;20557;-49
2021/09/25 07:40:44;;;;;;;29.47;15.13;;;16.80;99.90;;;;;;5028293;28;20218;-49
2021/09/25 07:43:11;;;;;;;23.00;14.67;;;16.80;99.90;;;;;;5037701;28;20223;-52
2021/09/25 07:45:38;;;;;;;28.27;13.83;;;16.80;99.90;;;;;;5035119;28;20200;-51
2021/09/25 07:48:05;;;;;;;26.63;13.77;;;16.90;99.90;;;;;;5036392;28;20211;-52
2021/09/25 07:50:32;;;;;;;22.13;14.13;;;16.90;99.90;;;;;;5032585;28;20206;-50
2021/09/25 07:52:59;;;;;;;18.93;13.40;;;16.90;99.90;;;;;;5033862;28;20219;-47
2021/09/25 07:55:26;;;;;;;21.80;13.63;;;16.90;99.90;;;;;;5036039;28;20207;-48
2021/09/25 07:57:54;;;;;;;23.83;13.50;;;17.00;99.90;;;;;;5018400;28;20227;-45
2021/09/25 08:00:22;;;;;;;25.50;13.57;;;17.00;99.90;;;;;;5034965;28;20560;-49
2021/09/25 08:02:49;;;;;;;24.07;12.90;;;17.10;99.90;;;;;;5028882;28;20583;-46
2021/09/25 08:05:16;;;;;;;24.00;12.87;;;17.20;99.90;;;;;;5035315;28;20202;-49
2021/09/25 08:07:43;;;;;;;21.80;13.03;;;17.20;99.90;;;;;;5043132;28;20496;-53
2021/09/25 08:10:12;;;;;;;24.23;12.93;;;17.20;99.90;;;;;;5038268;28;20207;-48
2021/09/25 08:12:39;;;;;;;20.30;12.03;;;17.20;99.90;;;;;;5035567;28;20218;-50
2021/09/25 08:15:09;;;;;;;20.23;12.23;;;17.30;99.90;;;;;;5043902;28;20203;-50
2021/09/25 08:17:36;;;;;;;17.40;12.40;;;17.30;99.90;;;;;;5041681;28;20234;-50
2021/09/25 08:20:06;;;;;;;19.77;12.40;;;17.30;99.90;;;;;;5049371;28;20207;-49
2021/09/25 08:22:32;;;;;;;17.83;12.10;;;17.40;99.90;;;;;;5038290;28;20206;-51
2021/09/25 08:24:59;;;;;;;20.67;12.40;;;17.40;99.90;;;;;;5048450;28;20207;-49
2021/09/25 08:27:25;;;;;;;17.97;12.13;;;17.40;99.90;;;;;;5027938;28;20238;-49
2021/09/25 08:29:52;;;;;;;19.00;11.57;;;17.50;99.90;;;;;;5043211;28;20684;-50
2021/09/25 08:32:20;;;;;;;18.27;10.87;;;17.50;99.90;;;;;;5046050;28;20199;-50
2021/09/25 08:34:47;;;;;;;16.90;11.27;;;17.60;99.90;;;;;;5044037;28;20226;-49
2021/09/25 08:37:15;;;;;;;20.90;11.80;;;17.60;99.90;;;;;;5042582;28;20215;-51
2021/09/25 08:39:42;;;;;;;17.10;11.00;;;17.70;99.90;;;;;;5040031;28;20206;-47
2021/09/25 08:42:11;;;;;;;18.93;11.13;;;17.70;99.90;;;;;;5038769;28;20211;-48
2021/09/25 08:44:39;;;;;;;18.77;11.43;;;17.80;99.90;;;;;;5029294;28;20195;-47
2021/09/25 08:47:06;;;;;;;16.03;10.27;;;17.80;99.90;;;;;;5039459;28;20684;-50
2021/09/25 08:49:34;;;;;;;14.83;10.37;;;17.80;99.90;;;;;;5038177;28;20199;-50
2021/09/25 08:52:01;;;;;;;20.27;11.80;;;17.90;99.90;;;;;;5045375;28;20203;-50
2021/09/25 08:54:28;;;;;;;18.67;11.80;;;17.90;99.90;;;;;;5034217;28;20326;-47
2021/09/25 08:56:55;;;;;;;15.67;10.60;;;17.80;99.90;;;;;;5041126;28;20226;-49
2021/09/25 08:59:22;;;;;;;16.70;10.70;;;17.90;99.90;;;;;;5032336;28;20226;-54
2021/09/25 09:01:49;;;;;;;12.60;10.63;;;17.90;99.90;;;;;;5040185;28;20206;-44
2021/09/25 09:04:17;;;;;;;16.90;10.83;;;17.80;99.90;;;;;;5041930;28;20227;-50
2021/09/25 09:06:48;;;;;;;14.00;11.00;;;17.90;99.90;;;;;;5034521;28;20584;-46
2021/09/25 09:09:16;;;;;;;15.83;9.70;;;17.90;99.90;;;;;;5033746;28;20983;-47
2021/09/25 09:11:47;;;;;;;20.33;11.17;;;18.00;99.90;;;;;;5039413;28;20218;-44
2021/09/25 09:14:15;;;;;;;17.53;9.60;;;18.00;99.90;;;;;;5036652;28;20301;-48
2021/09/25 09:16:42;;;;;;;17.13;10.60;;;18.00;99.90;;;;;;5025631;28;20691;-53
2021/09/25 09:19:09;;;;;;;16.40;10.73;;;18.10;99.90;;;;;;5040844;28;20726;-49
2021/09/25 09:21:36;;;;;;;17.80;10.30;;;18.10;99.90;;;;;;5038780;28;20199;-51
2021/09/25 09:24:07;;;;;;;19.50;10.73;;;18.20;99.90;;;;;;5029019;28;20545;-49
2021/09/25 09:26:36;;;;;;;17.77;9.77;;;18.20;99.90;;;;;;5043608;28;20199;-49
2021/09/25 09:29:06;;;;;;;18.30;10.73;;;18.30;99.90;;;;;;5038500;28;20230;-48
2021/09/25 09:31:33;;;;;;;16.97;10.33;;;18.30;99.90;;;;;;5022929;28;21605;-47
2021/09/25 09:34:01;;;;;;;13.60;10.17;;;18.40;99.90;;;;;;5041581;28;20553;-48
2021/09/25 09:36:31;;;;;;;12.83;10.27;;;18.40;99.90;;;;;;5037593;28;20212;-49
2021/09/25 09:39:01;;;;;;;16.47;10.90;;;18.40;99.90;;;;;;5027962;28;20230;-48
2021/09/25 09:41:34;;;;;;;15.47;10.80;;;18.40;99.90;;;;;;5042164;28;20187;-48
2021/09/25 09:44:03;;;;;;;16.90;10.50;;;18.50;99.90;;;;;;5037256;28;20210;-51
2021/09/25 09:46:33;;;;;;;14.73;10.23;;;18.40;99.90;;;;;;5027404;28;20208;-51
2021/09/25 09:48:59;;;;;;;14.57;9.97;;;18.50;99.90;;;;;;5042888;28;20225;-49
2021/09/25 09:51:37;;;;;;;18.27;10.40;;;18.50;99.90;;;;;;5036949;28;20413;-48
2021/09/25 09:54:09;;;;;;;19.77;11.30;;;18.50;99.90;;;;;;5038323;28;20215;-47
2021/09/25 09:56:39;;;;;;;14.93;9.90;;;18.50;99.90;;;;;;5041606;28;20206;-50
2021/09/25 09:59:07;;;;;;;16.87;10.40;;;18.60;99.90;;;;;;5035984;28;20234;-50
2021/09/25 10:01:34;;;;;;;18.17;10.73;;;18.60;99.90;;;;;;5029017;28;20203;-52
2021/09/25 10:04:02;;;;;;;17.07;10.03;;;18.60;99.90;;;;;;5037254;28;20695;-51
2021/09/25 10:06:29;;;;;;;15.10;10.37;;;18.60;99.90;;;;;;5038182;28;21775;-52
2021/09/25 10:08:56;;;;;;;18.47;9.80;;;18.60;99.90;;;;;;5042840;28;20247;-53
2021/09/25 10:11:24;;;;;;;11.40;9.93;;;18.60;99.90;;;;;;5016594;28;20931;-50
2021/09/25 10:13:52;;;;;;;17.87;10.27;;;18.70;99.90;;;;;;5038560;28;20210;-50
2021/09/25 10:16:19;;;;;;;15.57;9.53;;;18.70;99.90;;;;;;5022062;28;20210;-52
2021/09/25 10:18:46;;;;;;;19.57;9.87;;;18.70;99.90;;;;;;5037518;28;20226;-49
2021/09/25 10:21:14;;;;;;;17.07;10.33;;;18.70;99.90;;;;;;5035565;28;20202;-52
2021/09/25 10:23:48;;;;;;;15.50;10.10;;;18.70;99.90;;;;;;5040716;28;20199;-49
2021/09/25 10:26:17;;;;;;;16.47;10.00;;;18.80;99.90;;;;;;5027924;28;20886;-49
2021/09/25 10:28:55;;;;;;;16.23;9.93;;;18.80;99.90;;;;;;5043352;28;20247;-52
2021/09/25 10:31:22;;;;;;;12.77;8.90;;;18.80;99.90;;;;;;5036195;28;20202;-51
2021/09/25 10:34:16;;;;;;;17.00;8.87;;;18.80;99.90;;;;;;5023537;28;20230;-45
2021/09/25 10:36:47;;;;;;;12.77;9.17;;;19.00;99.90;;;;;;5037586;28;20204;-52
2021/09/25 10:39:28;;;;;;;14.90;8.77;;;19.00;99.90;;;;;;5034306;28;20235;-48
2021/09/25 10:42:15;;;;;;;16.23;9.30;;;19.10;99.90;;;;;;5032132;28;20203;-45
2021/09/25 10:44:49;;;;;;;10.43;8.60;;;19.20;99.90;;;;;;5035589;28;20203;-55
2021/09/25 10:47:19;;;;;;;16.30;9.03;;;19.20;99.90;;;;;;5037158;28;20277;-50
2021/09/25 10:49:54;;;;;;;16.33;10.43;;;19.30;99.90;;;;;;5024075;28;20347;-47
2021/09/25 10:52:24;;;;;;;15.60;9.80;;;19.30;99.90;;;;;;5043522;28;20205;-45
2021/09/25 10:55:34;;;;;;;11.27;9.00;;;19.40;99.90;;;;;;5034998;28;20239;-47
2021/09/25 10:58:19;;;;;;;10.20;8.63;;;19.40;99.90;;;;;;5028146;28;20230;-48
2021/09/25 11:00:56;;;;;;;15.40;9.13;;;19.40;99.90;;;;;;5033929;28;20205;-48
2021/09/25 11:04:04;;;;;;;13.40;8.40;;;19.40;99.90;;;;;;5029386;28;20561;-46
2021/09/25 11:06:39;;;;;;;12.77;9.47;;;19.40;99.90;;;;;;5038633;28;20569;-55
2021/09/25 11:09:08;;;;;;;9.87;8.77;;;19.40;99.90;;;;;;5040185;28;20702;-55
2021/09/25 11:11:38;;;;;;;13.27;9.03;;;19.40;99.90;;;;;;5041117;28;20211;-48
2021/09/25 11:14:19;;;;;;;11.30;9.23;;;19.50;99.90;;;;;;5041138;28;20219;-54
2021/09/25 11:16:57;;;;;;;10.63;7.77;;;19.50;99.90;;;;;;5034085;28;20207;-53
2021/09/25 11:19:45;;;;;;;10.87;7.70;;;19.50;99.90;;;;;;5028091;28;20219;-52
2021/09/25 11:22:22;;;;;;;8.43;7.63;;;19.60;99.90;;;;;;5040662;28;20207;-51
2021/09/25 11:24:53;;;;;;;11.10;7.93;;;19.80;99.90;;;;;;5034515;28;20195;-50
2021/09/25 11:27:21;;;;;;;9.77;8.13;;;19.90;99.90;;;;;;5034261;28;20203;-48
2021/09/25 11:30:13;;;;;;;13.40;7.60;;;20.00;99.90;;;;;;5038566;28;20906;-46
2021/09/25 11:32:46;;;;;;;10.03;7.43;;;20.00;99.90;;;;;;5033036;28;20614;-57
2021/09/25 11:35:15;;;;;;;10.53;8.27;;;20.00;99.90;;;;;;5030889;28;20224;-46
2021/09/25 11:37:54;;;;;;;12.33;7.00;;;20.10;99.90;;;;;;5033730;28;20231;-55
2021/09/25 11:40:24;;;;;;;8.60;6.80;;;20.10;99.90;;;;;;5039886;28;20229;-55
2021/09/25 11:42:52;;;;;;;9.60;7.10;;;20.10;99.90;;;;;;5034978;28;20399;-53
2021/09/25 11:45:19;;;;;;;10.70;8.00;;;20.10;99.90;;;;;;5047216;28;20195;-54
2021/09/25 11:47:49;;;;;;;10.93;7.93;;;20.20;99.90;;;;;;5041944;28;20241;-53
2021/09/25 11:50:18;;;;;;;11.40;8.00;;;20.10;99.90;;;;;;5049599;28;20209;-54
2021/09/25 11:52:47;;;;;;;11.47;7.57;;;20.10;99.90;;;;;;5029676;28;20224;-51
2021/09/25 11:55:15;;;;;;;8.90;7.80;;;20.20;99.90;;;;;;5039338;28;20215;-49
2021/09/25 11:57:48;;;;;;;10.37;7.00;;;20.10;99.90;;;;;;5047851;28;20226;-50
2021/09/25 12:00:21;;;;;;;11.47;7.30;;;20.10;99.90;;;;;;5038270;28;20233;-48
2021/09/25 12:02:50;;;;;;;8.87;6.90;;;20.10;99.90;;;;;;5044526;28;20571;-51
2021/09/25 12:05:31;;;;;;;10.50;7.40;;;20.10;99.90;;;;;;5042419;28;20187;-50
2021/09/25 12:08:00;;;;;;;9.17;7.43;;;20.10;99.90;;;;;;5032123;28;20227;-53
2021/09/25 12:10:28;;;;;;;9.27;8.33;;;20.10;99.90;;;;;;5038867;28;20191;-52
2021/09/25 12:12:58;;;;;;;9.13;7.67;;;20.10;99.90;;;;;;5044224;28;20203;-51
2021/09/25 12:15:27;;;;;;;8.60;6.87;;;20.20;99.90;;;;;;5029563;28;21018;-54
2021/09/25 12:18:18;;;;;;;8.50;6.83;;;20.30;99.90;;;;;;5039882;28;20227;-54
2021/09/25 12:20:47;;;;;;;11.33;6.87;;;20.20;99.90;;;;;;5046487;28;20210;-53
2021/09/25 12:23:19;;;;;;;8.57;6.80;;;20.20;99.90;;;;;;5033259;28;20211;-47
2021/09/25 12:25:46;;;;;;;8.20;6.37;;;20.20;99.90;;;;;;5045822;28;20215;-52
2021/09/25 12:28:39;;;;;;;10.60;7.67;;;20.20;99.90;;;;;;5038238;28;20719;-46
2021/09/25 12:31:09;;;;;;;7.53;6.83;;;20.20;99.90;;;;;;5038811;28;20377;-53
2021/09/25 12:33:38;;;;;;;7.50;6.80;;;20.20;99.90;;;;;;5038909;28;20322;-52
2021/09/25 12:36:07;;;;;;;8.10;6.10;;;20.20;99.90;;;;;;5045941;28;20215;-49
2021/09/25 12:38:36;;;;;;;8.07;7.10;;;20.30;99.90;;;;;;5035390;28;20359;-47
2021/09/25 12:41:06;;;;;;;9.80;7.60;;;20.30;99.90;;;;;;5044393;28;20214;-52